Time;durP1;ratioP1;P1;durP2;ratioP2;P2;SDS_P1;SDS_P2;PMS_P1;PMS_P2;Temp;Humidity;BMP_temperature;BMP_pressure;BME280_temperature;BME280_humidity;BME280_pressure;Samples;Min_cycle;Max_cycle;Signal;HPM_P1;HPM_P2
2023/11/20 00:00:36;;;;;;;2.30;2.10;;;12.10;99.90;;;;;;5048027;28;20199;-85
2023/11/20 00:03:03;;;;;;;2.53;2.20;;;12.10;99.90;;;;;;5044829;28;20272;-82
2023/11/20 00:05:30;;;;;;;3.03;2.00;;;12.10;99.90;;;;;;5049365;28;20233;-83
2023/11/20 00:07:56;;;;;;;2.88;2.53;;;12.10;99.90;;;;;;5047302;28;20206;-84
2023/11/20 00:10:25;;;;;;;2.60;1.83;;;12.20;99.90;;;;;;5048031;28;20207;-85
2023/11/20 00:12:51;;;;;;;3.90;2.75;;;12.20;99.90;;;;;;5042749;28;20283;-85
2023/11/20 00:15:18;;;;;;;4.68;2.20;;;12.20;99.90;;;;;;5045630;28;20247;-85
2023/11/20 00:17:47;;;;;;;1.70;1.60;;;12.30;99.90;;;;;;5043165;28;20259;-84
2023/11/20 00:20:14;;;;;;;3.30;1.98;;;12.30;99.90;;;;;;5048740;28;20200;-84
2023/11/20 00:22:41;;;;;;;7.30;2.38;;;12.20;99.90;;;;;;5042588;28;20204;-85
2023/11/20 00:25:08;;;;;;;4.00;2.10;;;12.20;99.90;;;;;;5026726;28;20299;-85
2023/11/20 00:27:37;;;;;;;3.00;2.13;;;12.30;99.90;;;;;;5042144;28;20200;-83
2023/11/20 00:30:05;;;;;;;4.18;1.70;;;12.30;99.90;;;;;;5043815;28;20208;-85
2023/11/20 00:32:32;;;;;;;3.40;2.30;;;12.20;99.90;;;;;;5049415;28;20215;-86
2023/11/20 00:34:59;;;;;;;2.63;2.22;;;12.10;99.90;;;;;;5039522;28;20266;-86
2023/11/20 00:37:25;;;;;;;3.58;2.47;;;12.10;99.90;;;;;;5036850;28;20210;-84
2023/11/20 00:39:52;;;;;;;2.92;2.63;;;12.10;99.90;;;;;;5031104;28;20207;-85
2023/11/20 00:42:19;;;;;;;3.20;2.45;;;12.10;99.90;;;;;;5040919;28;20231;-85
2023/11/20 00:44:47;;;;;;;3.47;2.28;;;12.10;99.90;;;;;;5039791;28;20204;-85
2023/11/20 00:47:14;;;;;;;4.22;2.55;;;12.10;99.90;;;;;;5025739;28;20284;-85
2023/11/20 00:49:41;;;;;;;3.75;2.85;;;12.10;99.90;;;;;;5025273;28;20233;-83
2023/11/20 00:52:09;;;;;;;3.30;3.00;;;12.00;99.90;;;;;;5030003;28;20212;-84
2023/11/20 00:54:36;;;;;;;3.08;2.35;;;12.00;99.90;;;;;;5025771;28;20234;-85
2023/11/20 00:57:03;;;;;;;3.05;2.70;;;12.00;99.90;;;;;;5034066;28;20710;-85
2023/11/20 00:59:30;;;;;;;1.95;1.75;;;12.10;99.90;;;;;;5040226;28;20236;-84
2023/11/20 01:01:58;;;;;;;2.83;2.35;;;12.10;99.90;;;;;;5032026;28;20264;-86
2023/11/20 01:04:25;;;;;;;6.97;3.35;;;12.20;99.90;;;;;;5042710;28;20240;-84
2023/11/20 01:06:52;;;;;;;3.10;2.80;;;12.20;99.90;;;;;;5035653;28;20716;-84
2023/11/20 01:09:19;;;;;;;5.30;2.95;;;12.30;99.90;;;;;;5037809;28;20264;-84
2023/11/20 01:11:46;;;;;;;2.05;1.85;;;12.20;99.90;;;;;;5038269;28;20665;-84
2023/11/20 01:14:13;;;;;;;3.83;2.45;;;12.30;99.90;;;;;;5040346;28;20232;-85
2023/11/20 01:16:40;;;;;;;2.60;2.40;;;12.30;99.90;;;;;;5033907;28;20475;-84
2023/11/20 01:19:08;;;;;;;5.10;3.47;;;12.40;99.90;;;;;;5031360;28;20587;-85
2023/11/20 01:21:37;;;;;;;2.95;1.92;;;12.20;99.90;;;;;;5031767;28;20208;-84
2023/11/20 01:24:04;;;;;;;2.70;2.50;;;12.20;99.90;;;;;;5040937;28;20212;-84
2023/11/20 01:26:31;;;;;;;4.33;3.00;;;12.10;99.90;;;;;;5035183;28;20300;-86
2023/11/20 01:28:58;;;;;;;3.75;2.85;;;12.10;99.90;;;;;;5030161;28;20480;-83
2023/11/20 01:31:25;;;;;;;4.10;3.45;;;12.10;99.90;;;;;;5041324;28;20184;-84
2023/11/20 01:33:52;;;;;;;3.60;2.58;;;11.90;99.90;;;;;;5041334;28;20206;-85
2023/11/20 01:36:20;;;;;;;4.30;3.85;;;12.00;99.90;;;;;;5039800;28;20323;-84
2023/11/20 01:38:50;;;;;;;3.38;2.92;;;12.10;99.90;;;;;;5028928;28;20200;-84
2023/11/20 01:41:17;;;;;;;5.13;4.63;;;12.00;99.90;;;;;;5034100;28;20224;-84
2023/11/20 01:43:44;;;;;;;4.90;4.13;;;12.00;99.90;;;;;;5032799;28;20204;-86
2023/11/20 01:46:14;;;;;;;4.45;3.63;;;12.00;99.90;;;;;;5034942;28;20687;-84
2023/11/20 01:48:41;;;;;;;5.07;4.63;;;11.90;99.90;;;;;;5032236;28;20204;-84
2023/11/20 01:51:09;;;;;;;6.75;5.25;;;12.00;99.90;;;;;;5028926;28;20203;-85
2023/11/20 01:53:39;;;;;;;5.22;4.72;;;12.00;99.90;;;;;;5034800;28;20205;-86
2023/11/20 01:56:08;;;;;;;6.85;5.70;;;12.10;99.90;;;;;;5032761;28;20617;-86
2023/11/20 01:58:36;;;;;;;5.30;4.80;;;12.20;99.90;;;;;;5032207;28;20662;-83
2023/11/20 02:01:04;;;;;;;4.47;4.07;;;12.20;99.90;;;;;;5020619;28;20200;-85
2023/11/20 02:03:32;;;;;;;5.35;4.43;;;12.20;99.90;;;;;;5034367;28;20289;-86
2023/11/20 02:05:58;;;;;;;5.63;4.88;;;12.20;99.90;;;;;;5035793;28;20730;-86
2023/11/20 02:08:28;;;;;;;4.20;3.80;;;12.20;99.90;;;;;;5036126;28;20236;-85
2023/11/20 02:10:58;;;;;;;3.70;3.40;;;12.20;99.90;;;;;;5041957;28;20226;-85
2023/11/20 02:13:26;;;;;;;5.70;4.80;;;12.30;99.90;;;;;;5042099;28;20200;-82
2023/11/20 02:15:53;;;;;;;5.10;4.18;;;12.30;99.90;;;;;;5039576;28;20864;-84
2023/11/20 02:18:30;;;;;;;4.28;3.53;;;12.30;99.90;;;;;;5037688;28;20653;-84
2023/11/20 02:20:57;;;;;;;4.97;3.58;;;12.30;99.90;;;;;;5039550;28;20565;-84
2023/11/20 02:23:49;;;;;;;4.82;4.03;;;12.40;99.90;;;;;;5032659;28;20295;-85
2023/11/20 02:26:50;;;;;;;11.13;4.28;;;12.30;99.90;;;;;;5028259;28;20311;-85
2023/11/20 02:29:25;;;;;;;7.45;4.15;;;12.30;99.90;;;;;;5026205;28;20201;-86
2023/11/20 02:31:53;;;;;;;7.43;4.47;;;12.30;99.90;;;;;;5037601;28;20588;-85
2023/11/20 02:34:20;;;;;;;4.68;4.15;;;12.30;99.90;;;;;;5030198;28;20205;-86
2023/11/20 02:36:47;;;;;;;4.15;3.47;;;12.20;99.90;;;;;;5037216;28;20782;-85
2023/11/20 02:39:14;;;;;;;4.10;3.67;;;12.10;99.90;;;;;;5034495;28;20209;-85
2023/11/20 02:41:43;;;;;;;4.57;3.15;;;12.10;99.90;;;;;;5028667;28;20628;-85
2023/11/20 02:44:10;;;;;;;6.55;4.07;;;12.10;99.90;;;;;;5030460;28;20249;-85
2023/11/20 02:46:37;;;;;;;3.50;3.05;;;12.10;99.90;;;;;;5031366;28;20228;-85
2023/11/20 02:49:05;;;;;;;3.35;2.90;;;12.20;99.90;;;;;;5041085;28;20383;-85
2023/11/20 02:51:32;;;;;;;3.75;2.85;;;12.10;99.90;;;;;;5042370;28;20205;-84
2023/11/20 02:53:59;;;;;;;3.17;2.47;;;12.10;99.90;;;;;;5042145;28;20210;-83
2023/11/20 02:56:27;;;;;;;5.35;3.65;;;12.10;99.90;;;;;;5042224;28;20751;-85
2023/11/20 02:58:55;;;;;;;3.53;3.22;;;12.10;99.90;;;;;;5058156;28;20274;-81
2023/11/20 03:01:22;;;;;;;3.10;2.65;;;12.10;99.90;;;;;;5060108;28;20199;-81
2023/11/20 03:03:49;;;;;;;6.40;2.60;;;12.10;99.90;;;;;;5043916;28;20236;-82
2023/11/20 03:06:18;;;;;;;3.72;3.10;;;12.10;99.90;;;;;;5051974;28;20212;-83
2023/11/20 03:08:45;;;;;;;3.28;2.47;;;12.10;99.90;;;;;;5051001;28;20223;-83
2023/11/20 03:11:11;;;;;;;4.40;2.80;;;12.20;99.90;;;;;;5038107;28;20223;-83
2023/11/20 03:13:39;;;;;;;3.15;2.85;;;12.20;99.90;;;;;;5029770;28;20602;-84
2023/11/20 03:16:07;;;;;;;2.90;2.60;;;12.30;99.90;;;;;;5030918;28;20254;-86
2023/11/20 03:18:34;;;;;;;3.92;1.98;;;12.30;99.90;;;;;;5032284;28;20208;-86
2023/11/20 03:21:00;;;;;;;2.95;2.63;;;12.40;99.90;;;;;;5034028;28;20220;-84
2023/11/20 03:23:29;;;;;;;1.95;1.60;;;12.40;99.90;;;;;;5029751;28;20217;-84
2023/11/20 03:25:56;;;;;;;3.65;3.35;;;12.50;99.90;;;;;;5036317;28;20588;-85
2023/11/20 03:28:23;;;;;;;5.13;2.97;;;12.40;99.90;;;;;;5030578;28;20209;-84
2023/11/20 03:30:50;;;;;;;2.60;2.13;;;12.40;99.90;;;;;;5036487;28;20298;-85
2023/11/20 03:33:16;;;;;;;4.47;2.85;;;12.50;99.90;;;;;;5031372;28;20218;-85
2023/11/20 03:35:43;;;;;;;2.10;1.60;;;12.50;99.90;;;;;;5036340;28;20555;-86
2023/11/20 03:38:10;;;;;;;2.83;2.00;;;12.50;99.90;;;;;;5025637;28;20223;-85
2023/11/20 03:40:38;;;;;;;2.67;1.58;;;12.60;99.90;;;;;;5034305;28;20211;-85
2023/11/20 03:43:05;;;;;;;3.17;2.25;;;12.60;99.90;;;;;;5034236;28;20203;-84
2023/11/20 03:45:32;;;;;;;3.55;2.40;;;12.60;99.90;;;;;;5028504;28;20307;-85
2023/11/20 03:47:59;;;;;;;5.82;4.13;;;12.60;99.90;;;;;;5029804;28;20244;-84
2023/11/20 03:50:26;;;;;;;5.03;3.30;;;12.60;99.90;;;;;;5023739;28;20205;-85
2023/11/20 03:52:52;;;;;;;3.97;3.03;;;12.60;99.90;;;;;;5035145;28;20627;-84
2023/11/20 03:57:51;;;;;;;4.38;2.28;;;12.60;99.90;;;;;;5041657;28;20242;-84
2023/11/20 04:00:18;;;;;;;3.20;1.90;;;12.60;99.90;;;;;;5042859;28;20231;-84
2023/11/20 04:02:45;;;;;;;4.93;2.75;;;12.50;99.90;;;;;;5042799;28;20275;-85
2023/11/20 04:05:12;;;;;;;5.40;4.32;;;12.50;99.90;;;;;;5025106;28;20294;-83
2023/11/20 04:07:38;;;;;;;3.60;2.72;;;12.50;99.90;;;;;;5013765;28;20232;-85
2023/11/20 04:10:07;;;;;;;4.03;2.35;;;12.50;99.90;;;;;;5022729;28;20281;-83
2023/11/20 04:12:34;;;;;;;4.53;3.30;;;12.60;99.90;;;;;;5024480;28;20208;-84
2023/11/20 04:15:02;;;;;;;4.43;3.30;;;12.60;99.90;;;;;;5024155;28;20280;-83
2023/11/20 04:17:29;;;;;;;7.38;3.95;;;12.70;99.90;;;;;;5026576;28;20209;-87
2023/11/20 04:19:56;;;;;;;4.82;3.05;;;12.70;99.90;;;;;;5020710;28;20253;-87
2023/11/20 04:22:23;;;;;;;2.38;2.17;;;12.70;99.90;;;;;;5038753;28;20217;-86
2023/11/20 04:24:50;;;;;;;9.70;4.63;;;12.70;99.90;;;;;;5038923;28;20228;-86
2023/11/20 04:27:24;;;;;;;3.90;3.40;;;12.70;99.90;;;;;;5038512;28;20224;-88
2023/11/20 04:29:51;;;;;;;6.55;3.90;;;12.60;99.90;;;;;;5038877;28;20224;-84
2023/11/20 04:32:20;;;;;;;4.97;3.83;;;12.70;99.90;;;;;;5037487;28;20223;-83
2023/11/20 04:34:47;;;;;;;6.28;4.68;;;12.60;99.90;;;;;;5024341;28;20205;-82
2023/11/20 04:37:14;;;;;;;5.55;3.97;;;12.60;99.90;;;;;;5024055;28;20300;-83
2023/11/20 04:39:41;;;;;;;6.75;4.88;;;12.50;99.90;;;;;;5025466;28;20205;-81
2023/11/20 04:42:07;;;;;;;6.45;4.40;;;12.60;99.90;;;;;;5024080;28;20215;-82
2023/11/20 04:44:34;;;;;;;6.60;5.05;;;12.50;99.90;;;;;;5023979;28;20219;-82
2023/11/20 04:47:01;;;;;;;6.95;4.80;;;12.60;99.90;;;;;;5023385;28;20239;-82
2023/11/20 04:49:29;;;;;;;6.57;4.82;;;12.60;99.90;;;;;;5022501;28;20205;-84
2023/11/20 04:51:56;;;;;;;9.02;6.20;;;12.60;99.90;;;;;;5022163;28;20209;-84
2023/11/20 04:54:23;;;;;;;7.78;4.55;;;12.70;99.90;;;;;;5009297;28;20201;-82
2023/11/20 04:56:50;;;;;;;5.97;4.22;;;12.70;99.90;;;;;;5021207;28;20240;-82
2023/11/20 04:59:16;;;;;;;6.28;4.28;;;12.70;99.90;;;;;;5022510;28;20717;-83
2023/11/20 05:01:43;;;;;;;6.78;4.65;;;12.60;99.90;;;;;;5023322;28;20264;-83
2023/11/20 05:04:10;;;;;;;7.47;4.72;;;12.80;99.90;;;;;;5023321;28;20667;-84
2023/11/20 05:06:38;;;;;;;7.10;5.28;;;12.60;99.90;;;;;;5023134;28;20259;-83
2023/11/20 05:09:07;;;;;;;7.63;6.13;;;12.60;99.90;;;;;;5023137;28;20349;-83
2023/11/20 05:11:35;;;;;;;6.55;5.60;;;12.60;99.90;;;;;;5024104;28;20255;-83
2023/11/20 05:14:02;;;;;;;5.00;3.92;;;12.60;99.90;;;;;;5014040;28;20228;-82
2023/11/20 05:16:29;;;;;;;11.43;6.60;;;12.60;99.90;;;;;;5019595;28;20790;-83
2023/11/20 05:18:56;;;;;;;9.70;6.53;;;12.70;99.90;;;;;;5024336;28;20672;-83
2023/11/20 05:21:23;;;;;;;8.80;6.93;;;12.60;99.90;;;;;;5023539;28;20627;-84
2023/11/20 05:23:51;;;;;;;9.65;7.10;;;12.70;99.90;;;;;;5024210;28;20222;-83
2023/11/20 05:26:19;;;;;;;9.95;7.40;;;12.60;99.90;;;;;;5033260;28;20248;-83
2023/11/20 05:28:45;;;;;;;7.53;6.13;;;12.60;99.90;;;;;;5033795;28;20260;-83
2023/11/20 05:31:12;;;;;;;8.00;6.00;;;12.60;99.90;;;;;;5027686;28;20194;-83
2023/11/20 05:33:39;;;;;;;11.07;6.20;;;12.60;99.90;;;;;;5032161;28;20291;-84
2023/11/20 05:36:07;;;;;;;8.02;5.95;;;12.70;99.90;;;;;;5024093;28;20244;-85
2023/11/20 05:38:35;;;;;;;9.02;6.60;;;12.80;99.90;;;;;;5027730;28;20205;-84
2023/11/20 05:41:03;;;;;;;8.68;6.00;;;12.90;99.90;;;;;;5036479;28;20200;-86
2023/11/20 05:43:32;;;;;;;10.30;7.40;;;12.80;99.90;;;;;;5036136;28;20188;-86
2023/11/20 05:45:59;;;;;;;6.07;5.07;;;12.90;99.90;;;;;;5033724;28;20502;-84
2023/11/20 05:48:26;;;;;;;10.07;6.75;;;13.00;99.90;;;;;;5031166;28;20472;-83
2023/11/20 05:50:53;;;;;;;9.68;6.55;;;13.00;99.90;;;;;;5013929;28;20287;-82
2023/11/20 05:53:25;;;;;;;7.05;6.00;;;13.00;99.90;;;;;;5022999;28;20224;-87
2023/11/20 05:55:52;;;;;;;5.50;5.00;;;13.00;99.90;;;;;;5022087;28;20308;-87
2023/11/20 05:58:20;;;;;;;6.80;5.85;;;13.00;99.90;;;;;;5028429;28;20602;-83
2023/11/20 06:00:47;;;;;;;6.57;4.95;;;13.10;99.90;;;;;;5020203;28;20439;-83
2023/11/20 06:03:14;;;;;;;7.18;6.03;;;13.10;99.90;;;;;;5021534;28;20200;-84
2023/11/20 06:05:41;;;;;;;6.05;5.45;;;13.10;99.90;;;;;;5025854;28;20256;-85
2023/11/20 06:08:09;;;;;;;4.47;3.72;;;13.00;99.90;;;;;;5024305;28;20225;-84
2023/11/20 06:10:36;;;;;;;4.55;4.15;;;13.00;99.90;;;;;;5017671;28;20229;-81
2023/11/20 06:13:02;;;;;;;5.00;4.18;;;12.90;99.90;;;;;;5023825;28;20201;-82
2023/11/20 06:15:31;;;;;;;5.35;4.43;;;13.00;99.90;;;;;;5024207;28;20480;-83
2023/11/20 06:17:58;;;;;;;4.63;3.67;;;12.90;99.90;;;;;;5024136;28;20255;-84
2023/11/20 06:20:24;;;;;;;5.13;4.32;;;12.80;99.90;;;;;;5023525;28;20212;-84
2023/11/20 06:22:51;;;;;;;4.13;3.83;;;12.80;99.90;;;;;;5024140;28;20232;-83
2023/11/20 06:25:18;;;;;;;6.22;3.20;;;12.70;99.90;;;;;;5035406;28;20188;-85
2023/11/20 06:27:45;;;;;;;4.40;3.97;;;12.70;99.90;;;;;;5033315;28;20281;-83
2023/11/20 06:30:13;;;;;;;3.42;2.97;;;12.70;99.90;;;;;;5040866;28;20197;-83
2023/11/20 06:32:41;;;;;;;2.55;2.35;;;12.60;99.90;;;;;;5038725;28;20246;-83
2023/11/20 06:35:09;;;;;;;3.75;3.45;;;12.60;99.90;;;;;;5038540;28;20235;-82
2023/11/20 06:37:36;;;;;;;3.50;3.17;;;12.60;99.90;;;;;;5040106;28;20233;-83
2023/11/20 06:40:05;;;;;;;3.70;3.38;;;12.70;99.90;;;;;;5031346;28;20280;-83
2023/11/20 06:42:32;;;;;;;4.30;3.90;;;12.60;99.90;;;;;;5016541;28;20209;-85
2023/11/20 06:44:59;;;;;;;3.95;3.63;;;12.60;99.90;;;;;;5025048;28;20834;-85
2023/11/20 06:47:26;;;;;;;3.97;3.55;;;12.60;99.90;;;;;;5026779;28;20236;-85
2023/11/20 06:49:54;;;;;;;4.03;3.63;;;12.60;99.90;;;;;;5027524;28;20205;-84
2023/11/20 06:52:21;;;;;;;4.90;4.22;;;12.60;99.90;;;;;;5022101;28;20212;-85
2023/11/20 06:54:49;;;;;;;4.55;4.10;;;12.60;99.90;;;;;;5028921;28;20311;-83
2023/11/20 06:57:15;;;;;;;2.65;2.45;;;12.70;99.90;;;;;;5025925;28;20233;-86
2023/11/20 06:59:44;;;;;;;6.18;3.10;;;12.70;99.90;;;;;;5017325;28;20210;-85
2023/11/20 07:02:11;;;;;;;6.10;3.80;;;12.60;99.90;;;;;;5023638;28;20207;-85
2023/11/20 07:04:44;;;;;;;5.07;4.63;;;12.70;99.90;;;;;;5032954;28;20201;-83
2023/11/20 07:07:13;;;;;;;4.20;3.80;;;12.60;99.90;;;;;;5026537;28;20255;-85
2023/11/20 07:09:40;;;;;;;4.32;3.47;;;12.60;99.90;;;;;;5023939;28;20644;-86
2023/11/20 07:12:08;;;;;;;4.30;2.75;;;12.50;99.90;;;;;;5017354;28;20205;-85
2023/11/20 07:14:35;;;;;;;6.32;4.65;;;12.50;99.90;;;;;;5021424;28;20216;-83
2023/11/20 07:17:02;;;;;;;6.10;4.70;;;12.50;99.90;;;;;;5020150;28;20264;-84
2023/11/20 07:19:28;;;;;;;4.80;4.30;;;12.40;99.90;;;;;;5023698;28;20209;-85
2023/11/20 07:21:55;;;;;;;6.88;4.47;;;12.40;99.90;;;;;;5027066;28;20209;-84
2023/11/20 07:24:25;;;;;;;3.75;3.40;;;12.30;99.90;;;;;;5026836;28;20229;-84
2023/11/20 07:26:52;;;;;;;5.57;3.53;;;12.30;99.90;;;;;;5018051;28;20222;-83
2023/11/20 07:29:18;;;;;;;6.75;4.13;;;12.40;99.90;;;;;;5022925;28;20665;-83
2023/11/20 07:31:45;;;;;;;4.65;3.50;;;12.30;99.90;;;;;;5023035;28;20216;-83
2023/11/20 07:34:12;;;;;;;5.60;3.30;;;12.30;99.90;;;;;;5020034;28;20228;-82
2023/11/20 07:36:39;;;;;;;10.88;9.45;;;12.30;99.90;;;;;;5019401;28;20289;-84
2023/11/20 07:39:06;;;;;;;5.38;3.60;;;12.40;99.90;;;;;;5021419;28;20208;-82
2023/11/20 07:44:57;;;;;;;4.05;3.15;;;12.50;99.90;;;;;;5016779;28;20192;-85
2023/11/20 07:47:24;;;;;;;4.53;3.63;;;12.60;99.90;;;;;;5026393;28;20312;-85
2023/11/20 07:49:51;;;;;;;2.97;2.67;;;12.50;99.90;;;;;;5020476;28;20489;-85
2023/11/20 07:52:18;;;;;;;3.47;3.28;;;12.50;99.90;;;;;;5024455;28;20216;-85
2023/11/20 07:54:45;;;;;;;3.17;2.97;;;12.40;99.90;;;;;;5013627;28;20214;-86
2023/11/20 07:57:15;;;;;;;2.85;2.65;;;12.60;99.90;;;;;;5027624;28;20684;-85
2023/11/20 07:59:42;;;;;;;2.10;2.00;;;12.50;99.90;;;;;;5022675;28;20204;-83
2023/11/20 08:02:10;;;;;;;2.20;1.80;;;12.60;99.90;;;;;;5025476;28;20269;-85
2023/11/20 08:04:37;;;;;;;1.92;1.70;;;12.60;99.90;;;;;;5026299;28;20202;-85
2023/11/20 08:07:09;;;;;;;2.60;2.08;;;12.50;99.90;;;;;;5019107;28;20234;-84
2023/11/20 08:09:40;;;;;;;1.75;1.35;;;12.40;99.90;;;;;;5015459;28;20213;-86
2023/11/20 08:12:07;;;;;;;1.90;1.70;;;12.40;99.90;;;;;;5020857;28;20212;-85
2023/11/20 08:14:37;;;;;;;1.85;1.48;;;12.40;99.90;;;;;;5017464;28;20288;-87
2023/11/20 08:17:04;;;;;;;1.27;1.17;;;12.40;99.90;;;;;;5021390;28;20228;-86
2023/11/20 08:19:33;;;;;;;1.85;1.20;;;12.50;99.90;;;;;;5025917;28;20219;-86
2023/11/20 08:22:00;;;;;;;1.77;1.67;;;12.10;99.90;;;;;;5025826;28;20213;-86
2023/11/20 08:24:29;;;;;;;2.22;1.60;;;12.30;99.90;;;;;;5023106;28;20215;-85
2023/11/20 08:26:58;;;;;;;1.88;1.77;;;12.30;99.90;;;;;;5025927;28;20252;-86
2023/11/20 08:29:27;;;;;;;2.35;2.00;;;12.30;99.90;;;;;;5023423;28;20201;-85
2023/11/20 08:31:55;;;;;;;2.10;1.90;;;12.20;99.90;;;;;;5016854;28;20209;-86
2023/11/20 08:34:22;;;;;;;7.15;2.28;;;12.30;99.90;;;;;;5018009;28;20234;-85
2023/11/20 08:36:51;;;;;;;3.33;3.03;;;12.30;99.90;;;;;;5020378;28;20280;-85
2023/11/20 08:39:21;;;;;;;6.25;3.58;;;12.20;99.90;;;;;;5027617;28;20204;-86
2023/11/20 08:41:48;;;;;;;4.53;3.00;;;12.00;99.90;;;;;;5026849;28;20849;-84
2023/11/20 08:44:15;;;;;;;2.53;2.33;;;12.00;99.90;;;;;;5025630;28;20208;-85
2023/11/20 08:46:43;;;;;;;4.40;3.00;;;12.00;99.90;;;;;;5026181;28;20248;-86
2023/11/20 08:49:10;;;;;;;4.57;2.53;;;12.00;99.90;;;;;;5021871;28;20251;-85
2023/11/20 08:51:37;;;;;;;2.65;2.33;;;12.00;99.90;;;;;;5026420;28;20212;-85
2023/11/20 08:54:06;;;;;;;10.45;2.95;;;12.00;99.90;;;;;;5022204;28;20441;-86
2023/11/20 08:56:34;;;;;;;32.78;5.68;;;12.00;99.90;;;;;;5024800;28;20237;-85
2023/11/20 08:59:01;;;;;;;8.23;3.25;;;12.00;99.90;;;;;;5026571;28;20232;-85
2023/11/20 09:01:32;;;;;;;6.57;1.80;;;12.10;99.90;;;;;;5025776;28;20232;-86
2023/11/20 09:03:59;;;;;;;2.83;1.80;;;12.00;99.90;;;;;;5023486;28;20235;-86
2023/11/20 09:06:26;;;;;;;15.43;3.20;;;12.00;99.90;;;;;;5018484;28;20263;-85
2023/11/20 09:08:53;;;;;;;5.00;1.98;;;12.10;99.90;;;;;;5012825;28;20221;-84
2023/11/20 09:11:22;;;;;;;28.63;5.47;;;12.00;99.90;;;;;;5011506;28;20216;-86
2023/11/20 09:13:49;;;;;;;9.52;2.10;;;12.10;99.90;;;;;;5016310;28;20498;-84
2023/11/20 09:16:15;;;;;;;4.38;2.17;;;12.00;99.90;;;;;;5023098;28;20243;-85
2023/11/20 09:18:42;;;;;;;9.68;3.35;;;12.00;99.90;;;;;;5025177;28;20228;-86
2023/11/20 09:21:09;;;;;;;7.43;3.67;;;12.00;99.90;;;;;;5022390;28;20264;-84
2023/11/20 09:23:36;;;;;;;11.65;2.25;;;11.90;99.90;;;;;;5022263;28;20619;-84
2023/11/20 09:26:08;;;;;;;10.80;3.45;;;12.00;99.90;;;;;;5021331;28;20225;-85
2023/11/20 09:28:36;;;;;;;2.92;2.15;;;11.90;99.90;;;;;;5022698;28;20998;-84
2023/11/20 09:31:03;;;;;;;2.50;1.75;;;11.90;99.90;;;;;;5020119;28;20258;-86
2023/11/20 09:33:30;;;;;;;10.23;2.50;;;11.90;99.90;;;;;;5016612;28;20307;-85
2023/11/20 09:35:57;;;;;;;4.78;1.65;;;11.90;99.90;;;;;;5016282;28;20210;-84
2023/11/20 09:38:24;;;;;;;12.15;3.30;;;11.70;99.90;;;;;;5019555;28;20209;-85
2023/11/20 09:40:52;;;;;;;2.78;1.55;;;11.80;99.90;;;;;;5024894;28;20209;-85
2023/11/20 09:43:22;;;;;;;3.97;1.65;;;11.80;99.90;;;;;;5023126;28;20302;-83
2023/11/20 09:45:54;;;;;;;5.25;1.30;;;11.80;99.90;;;;;;5023679;28;20220;-85
2023/11/20 09:48:23;;;;;;;5.90;2.30;;;11.80;99.90;;;;;;5023713;28;20212;-85
2023/11/20 09:50:51;;;;;;;8.70;2.25;;;12.00;99.90;;;;;;5025441;28;20287;-84
2023/11/20 09:53:18;;;;;;;6.07;1.60;;;11.90;99.90;;;;;;5025025;28;20239;-84
2023/11/20 09:55:47;;;;;;;4.57;1.40;;;12.10;99.90;;;;;;5022689;28;20241;-84
2023/11/20 09:58:14;;;;;;;13.50;3.00;;;12.00;99.90;;;;;;5019422;28;20304;-86
2023/11/20 10:00:41;;;;;;;10.52;2.90;;;12.00;99.90;;;;;;5018982;28;20265;-87
2023/11/20 10:03:12;;;;;;;4.30;1.30;;;12.00;99.90;;;;;;5020382;28;20304;-87
2023/11/20 10:05:48;;;;;;;6.25;1.45;;;12.00;99.90;;;;;;5016828;28;20233;-84
2023/11/20 10:08:17;;;;;;;2.75;1.10;;;12.00;99.90;;;;;;5016364;28;20318;-84
2023/11/20 10:10:48;;;;;;;6.03;2.30;;;12.10;99.90;;;;;;5027381;28;20262;-85
2023/11/20 10:13:16;;;;;;;2.38;1.30;;;12.10;99.90;;;;;;5030961;28;20205;-84
2023/11/20 10:15:43;;;;;;;2.70;1.40;;;12.10;99.90;;;;;;5030964;28;20242;-86
2023/11/20 10:18:11;;;;;;;2.95;1.00;;;12.10;99.90;;;;;;5029011;28;20218;-85
2023/11/20 10:20:48;;;;;;;13.32;2.78;;;12.00;99.90;;;;;;5020883;28;20240;-85
2023/11/20 10:23:16;;;;;;;2.42;1.35;;;12.00;99.90;;;;;;5028347;28;20201;-85
2023/11/20 10:25:47;;;;;;;2.05;1.08;;;12.10;99.90;;;;;;5015938;28;20235;-86
2023/11/20 10:28:14;;;;;;;3.50;1.48;;;12.00;99.90;;;;;;5020521;28;20225;-85
2023/11/20 10:30:43;;;;;;;7.60;1.90;;;11.80;99.90;;;;;;5022426;28;20229;-84
2023/11/20 10:33:18;;;;;;;3.38;1.13;;;11.90;99.90;;;;;;5025820;28;20668;-86
2023/11/20 10:35:45;;;;;;;5.50;2.45;;;11.90;99.90;;;;;;5023973;28;20243;-85
2023/11/20 10:38:12;;;;;;;4.63;1.25;;;12.10;99.90;;;;;;5020013;28;20431;-85
2023/11/20 10:40:40;;;;;;;3.30;1.90;;;12.00;99.90;;;;;;5022795;28;20224;-85
2023/11/20 10:43:09;;;;;;;3.90;2.22;;;12.00;99.90;;;;;;5016932;28;20206;-85
2023/11/20 10:45:37;;;;;;;1.95;1.40;;;12.00;99.90;;;;;;5022151;28;20227;-83
2023/11/20 10:48:07;;;;;;;4.03;2.08;;;12.00;99.90;;;;;;5021189;28;20228;-84
2023/11/20 10:50:36;;;;;;;6.70;2.17;;;11.90;99.90;;;;;;5026554;28;20207;-84
2023/11/20 10:53:07;;;;;;;13.38;3.13;;;11.90;99.90;;;;;;5024670;28;20198;-84
2023/11/20 10:55:50;;;;;;;10.95;4.72;;;11.90;99.90;;;;;;5030569;28;20287;-82
2023/11/20 10:58:17;;;;;;;4.53;3.65;;;11.90;99.90;;;;;;5030156;28;20231;-81
2023/11/20 11:00:44;;;;;;;3.00;2.40;;;11.90;99.90;;;;;;5031429;28;20195;-83
2023/11/20 11:03:12;;;;;;;5.43;3.25;;;11.90;99.90;;;;;;5038332;28;20208;-81
2023/11/20 11:05:43;;;;;;;8.32;3.70;;;11.90;99.90;;;;;;5039318;28;20221;-80
2023/11/20 11:08:12;;;;;;;10.95;4.93;;;11.90;99.90;;;;;;5040713;28;20215;-82
2023/11/20 11:10:41;;;;;;;12.27;4.22;;;11.90;99.90;;;;;;5049823;28;20256;-82
2023/11/20 11:13:09;;;;;;;13.02;6.72;;;11.90;99.90;;;;;;5038453;28;20195;-81
2023/11/20 11:15:36;;;;;;;16.45;5.18;;;12.00;99.90;;;;;;5032467;28;20241;-82
2023/11/20 11:18:08;;;;;;;13.05;5.07;;;12.00;99.90;;;;;;5034258;28;20193;-82
2023/11/20 11:20:46;;;;;;;9.23;4.45;;;11.90;99.90;;;;;;5038451;28;20193;-81
2023/11/20 11:23:14;;;;;;;8.93;5.30;;;12.00;99.90;;;;;;5035975;28;20492;-79
2023/11/20 11:26:02;;;;;;;8.95;5.55;;;11.90;99.90;;;;;;5027209;28;20323;-80
2023/11/20 11:28:30;;;;;;;10.65;4.93;;;12.00;99.90;;;;;;5032702;28;20255;-81
2023/11/20 11:30:58;;;;;;;14.43;4.82;;;12.00;99.90;;;;;;5033176;28;20199;-80
2023/11/20 11:34:02;;;;;;;10.15;4.75;;;12.10;99.90;;;;;;5031467;28;20192;-82
2023/11/20 11:36:41;;;;;;;13.18;4.15;;;12.10;99.90;;;;;;5032469;28;20273;-82
2023/11/20 11:39:18;;;;;;;12.65;5.03;;;11.90;99.90;;;;;;5038421;28;20212;-81
2023/11/20 11:41:47;;;;;;;28.98;6.03;;;12.00;99.90;;;;;;5037859;28;20264;-81
2023/11/20 11:44:22;;;;;;;10.52;5.00;;;12.10;99.90;;;;;;5019832;28;20198;-82
2023/11/20 11:46:52;;;;;;;12.80;4.15;;;12.00;99.90;;;;;;5019283;28;20625;-84
2023/11/20 11:49:21;;;;;;;14.75;4.60;;;12.10;99.90;;;;;;5010003;28;20241;-85
2023/11/20 11:51:53;;;;;;;13.57;4.53;;;12.20;99.90;;;;;;5023201;28;20205;-84
2023/11/20 11:54:21;;;;;;;18.50;5.18;;;12.20;99.90;;;;;;5021469;28;20227;-84
2023/11/20 11:57:09;;;;;;;13.52;4.40;;;12.30;99.90;;;;;;5026172;28;20307;-83
2023/11/20 11:59:40;;;;;;;10.18;5.85;;;12.20;99.90;;;;;;5022498;28;20235;-82
2023/11/20 12:02:09;;;;;;;11.45;5.07;;;12.10;99.90;;;;;;5023597;28;20225;-82
2023/11/20 12:05:03;;;;;;;18.38;5.00;;;12.20;99.90;;;;;;5033518;28;20199;-83
2023/11/20 12:08:09;;;;;;;14.73;5.78;;;12.20;99.90;;;;;;5024778;28;20240;-82
2023/11/20 12:10:40;;;;;;;11.50;3.80;;;12.10;99.90;;;;;;4986960;28;20229;-83
2023/11/20 12:13:09;;;;;;;17.70;5.43;;;12.00;99.90;;;;;;4990056;28;20244;-82
2023/11/20 12:15:38;;;;;;;11.15;5.13;;;12.10;99.90;;;;;;5012051;28;20229;-83
2023/11/20 12:18:08;;;;;;;16.45;4.63;;;12.10;99.90;;;;;;5028290;28;20568;-82
2023/11/20 12:20:35;;;;;;;22.05;6.03;;;12.00;99.90;;;;;;5026968;28;20651;-83
2023/11/20 12:23:06;;;;;;;15.10;5.45;;;12.00;99.90;;;;;;5022610;28;20352;-82
2023/11/20 12:25:36;;;;;;;22.35;5.10;;;12.00;99.90;;;;;;5029541;28;20241;-81
2023/11/20 12:28:04;;;;;;;17.45;5.50;;;12.10;99.90;;;;;;5022519;28;20206;-83
2023/11/20 12:30:31;;;;;;;10.13;3.50;;;12.10;99.90;;;;;;5031614;28;20220;-84
2023/11/20 12:32:59;;;;;;;17.33;4.82;;;12.20;99.90;;;;;;5033036;28;20205;-82
2023/11/20 12:35:26;;;;;;;26.60;5.47;;;12.20;99.90;;;;;;5032179;28;20209;-82
2023/11/20 12:37:53;;;;;;;22.23;4.43;;;12.30;99.90;;;;;;5021939;28;20236;-82
2023/11/20 12:40:20;;;;;;;12.27;4.40;;;12.20;99.90;;;;;;5031612;28;20221;-83
2023/11/20 12:42:49;;;;;;;16.95;4.25;;;12.20;99.90;;;;;;5032426;28;20252;-83
2023/11/20 12:45:15;;;;;;;15.63;5.00;;;12.20;99.90;;;;;;5030860;28;20295;-83
2023/11/20 12:47:42;;;;;;;19.50;4.28;;;12.20;99.90;;;;;;5029473;28;20247;-85
2023/11/20 12:50:13;;;;;;;12.77;4.63;;;12.20;99.90;;;;;;5021767;28;20236;-82
2023/11/20 12:52:41;;;;;;;15.13;5.32;;;12.20;99.90;;;;;;5025657;28;20624;-83
2023/11/20 12:55:10;;;;;;;11.20;4.38;;;12.40;99.90;;;;;;5022859;28;20218;-83
2023/11/20 12:57:38;;;;;;;9.10;4.90;;;12.30;99.90;;;;;;5029341;28;20237;-82